sensor_id;sensor_type;location;lat;lon;timestamp;P1;durP1;ratioP1;P2;durP2;ratioP2
10565;SDS011;5331;48.148;16.326;2023-03-01T00:01:40;22.90;;;16.87;;
10565;SDS011;5331;48.148;16.326;2023-03-01T00:04:07;23.67;;;17.27;;
10565;SDS011;5331;48.148;16.326;2023-03-01T00:06:34;26.77;;;17.07;;
10565;SDS011;5331;48.148;16.326;2023-03-01T00:09:01;23.13;;;15.53;;
10565;SDS011;5331;48.148;16.326;2023-03-01T00:11:29;20.63;;;15.83;;
10565;SDS011;5331;48.148;16.326;2023-03-01T00:13:59;23.70;;;16.33;;
10565;SDS011;5331;48.148;16.326;2023-03-01T00:16:28;24.43;;;17.30;;
10565;SDS011;5331;48.148;16.326;2023-03-01T00:18:56;25.53;;;16.77;;
10565;SDS011;5331;48.148;16.326;2023-03-01T00:21:24;24.23;;;16.67;;
10565;SDS011;5331;48.148;16.326;2023-03-01T00:23:51;23.83;;;16.60;;
10565;SDS011;5331;48.148;16.326;2023-03-01T00:26:20;24.37;;;16.60;;
10565;SDS011;5331;48.148;16.326;2023-03-01T00:28:48;24.40;;;16.20;;
10565;SDS011;5331;48.148;16.326;2023-03-01T00:31:18;23.50;;;17.10;;
10565;SDS011;5331;48.148;16.326;2023-03-01T00:33:46;21.87;;;16.70;;
10565;SDS011;5331;48.148;16.326;2023-03-01T00:36:14;25.23;;;18.03;;
10565;SDS011;5331;48.148;16.326;2023-03-01T00:38:42;22.90;;;16.43;;
10565;SDS011;5331;48.148;16.326;2023-03-01T00:41:11;23.67;;;16.73;;
10565;SDS011;5331;48.148;16.326;2023-03-01T00:43:40;25.50;;;17.60;;
10565;SDS011;5331;48.148;16.326;2023-03-01T00:46:07;23.93;;;16.20;;
10565;SDS011;5331;48.148;16.326;2023-03-01T00:48:37;24.33;;;16.50;;
10565;SDS011;5331;48.148;16.326;2023-03-01T00:51:05;23.87;;;15.80;;
10565;SDS011;5331;48.148;16.326;2023-03-01T00:53:33;22.63;;;16.03;;
10565;SDS011;5331;48.148;16.326;2023-03-01T00:56:00;24.47;;;16.87;;
10565;SDS011;5331;48.148;16.326;2023-03-01T00:58:28;22.77;;;16.40;;
10565;SDS011;5331;48.148;16.326;2023-03-01T01:00:55;25.10;;;16.90;;
10565;SDS011;5331;48.148;16.326;2023-03-01T01:03:22;25.43;;;17.00;;
10565;SDS011;5331;48.148;16.326;2023-03-01T01:05:51;21.80;;;16.67;;
10565;SDS011;5331;48.148;16.326;2023-03-01T01:08:18;23.43;;;16.97;;
10565;SDS011;5331;48.148;16.326;2023-03-01T01:10:45;22.77;;;16.70;;
10565;SDS011;5331;48.148;16.326;2023-03-01T01:13:13;22.60;;;17.30;;
10565;SDS011;5331;48.148;16.326;2023-03-01T01:15:40;25.00;;;17.13;;
10565;SDS011;5331;48.148;16.326;2023-03-01T01:18:07;25.77;;;18.13;;
10565;SDS011;5331;48.148;16.326;2023-03-01T01:20:34;23.73;;;16.20;;
10565;SDS011;5331;48.148;16.326;2023-03-01T01:23:03;27.10;;;17.63;;
10565;SDS011;5331;48.148;16.326;2023-03-01T01:25:33;25.90;;;17.73;;
10565;SDS011;5331;48.148;16.326;2023-03-01T01:28:01;25.77;;;17.47;;
10565;SDS011;5331;48.148;16.326;2023-03-01T01:30:28;26.73;;;17.83;;
10565;SDS011;5331;48.148;16.326;2023-03-01T01:32:55;24.30;;;17.33;;
10565;SDS011;5331;48.148;16.326;2023-03-01T01:35:22;25.07;;;18.00;;
10565;SDS011;5331;48.148;16.326;2023-03-01T01:37:48;26.03;;;17.23;;
10565;SDS011;5331;48.148;16.326;2023-03-01T01:40:17;24.07;;;17.40;;
10565;SDS011;5331;48.148;16.326;2023-03-01T01:42:44;23.57;;;16.60;;
10565;SDS011;5331;48.148;16.326;2023-03-01T01:45:32;23.37;;;16.70;;
10565;SDS011;5331;48.148;16.326;2023-03-01T01:48:02;24.50;;;16.73;;
10565;SDS011;5331;48.148;16.326;2023-03-01T01:50:32;23.63;;;16.83;;
10565;SDS011;5331;48.148;16.326;2023-03-01T01:53:05;23.33;;;16.63;;
10565;SDS011;5331;48.148;16.326;2023-03-01T01:55:36;23.07;;;16.30;;
10565;SDS011;5331;48.148;16.326;2023-03-01T01:58:08;23.43;;;16.20;;
10565;SDS011;5331;48.148;16.326;2023-03-01T02:00:37;24.43;;;16.70;;
10565;SDS011;5331;48.148;16.326;2023-03-01T02:03:06;22.70;;;16.53;;
10565;SDS011;5331;48.148;16.326;2023-03-01T02:05:38;26.20;;;17.50;;
10565;SDS011;5331;48.148;16.326;2023-03-01T02:08:11;22.80;;;16.13;;
10565;SDS011;5331;48.148;16.326;2023-03-01T02:10:41;22.87;;;16.30;;
10565;SDS011;5331;48.148;16.326;2023-03-01T02:13:09;25.07;;;17.97;;
10565;SDS011;5331;48.148;16.326;2023-03-01T02:15:37;25.23;;;17.90;;
10565;SDS011;5331;48.148;16.326;2023-03-01T02:18:06;25.00;;;17.03;;
10565;SDS011;5331;48.148;16.326;2023-03-01T02:20:37;25.20;;;17.60;;
10565;SDS011;5331;48.148;16.326;2023-03-01T02:23:11;24.27;;;17.47;;
10565;SDS011;5331;48.148;16.326;2023-03-01T02:25:41;26.70;;;16.63;;
10565;SDS011;5331;48.148;16.326;2023-03-01T02:28:22;22.73;;;16.70;;
10565;SDS011;5331;48.148;16.326;2023-03-01T02:30:51;23.93;;;16.87;;
10565;SDS011;5331;48.148;16.326;2023-03-01T02:33:38;25.50;;;16.77;;
10565;SDS011;5331;48.148;16.326;2023-03-01T02:36:09;27.10;;;17.40;;
10565;SDS011;5331;48.148;16.326;2023-03-01T02:38:40;24.00;;;16.40;;
10565;SDS011;5331;48.148;16.326;2023-03-01T02:41:07;24.13;;;18.17;;
10565;SDS011;5331;48.148;16.326;2023-03-01T02:43:36;27.77;;;18.97;;
10565;SDS011;5331;48.148;16.326;2023-03-01T02:46:04;24.70;;;17.93;;
10565;SDS011;5331;48.148;16.326;2023-03-01T02:48:42;25.87;;;17.77;;
10565;SDS011;5331;48.148;16.326;2023-03-01T02:51:14;22.57;;;16.33;;
10565;SDS011;5331;48.148;16.326;2023-03-01T02:53:55;25.70;;;17.80;;
10565;SDS011;5331;48.148;16.326;2023-03-01T02:56:28;28.70;;;17.67;;
10565;SDS011;5331;48.148;16.326;2023-03-01T02:58:57;22.90;;;16.17;;
10565;SDS011;5331;48.148;16.326;2023-03-01T03:01:25;21.43;;;16.10;;
10565;SDS011;5331;48.148;16.326;2023-03-01T03:04:01;20.97;;;15.97;;
10565;SDS011;5331;48.148;16.326;2023-03-01T03:06:29;24.17;;;16.10;;
10565;SDS011;5331;48.148;16.326;2023-03-01T03:09:04;24.70;;;16.63;;
10565;SDS011;5331;48.148;16.326;2023-03-01T03:11:33;23.67;;;16.77;;
10565;SDS011;5331;48.148;16.326;2023-03-01T03:14:03;27.60;;;17.83;;
10565;SDS011;5331;48.148;16.326;2023-03-01T03:16:30;26.60;;;18.83;;
10565;SDS011;5331;48.148;16.326;2023-03-01T03:18:56;23.67;;;16.23;;
10565;SDS011;5331;48.148;16.326;2023-03-01T03:21:30;21.97;;;15.93;;
10565;SDS011;5331;48.148;16.326;2023-03-01T03:23:57;23.33;;;16.17;;
10565;SDS011;5331;48.148;16.326;2023-03-01T03:26:24;25.50;;;17.60;;
10565;SDS011;5331;48.148;16.326;2023-03-01T03:28:51;28.67;;;18.40;;
10565;SDS011;5331;48.148;16.326;2023-03-01T03:31:20;24.63;;;17.57;;
10565;SDS011;5331;48.148;16.326;2023-03-01T03:33:47;27.13;;;18.50;;
10565;SDS011;5331;48.148;16.326;2023-03-01T03:36:15;26.87;;;17.87;;
10565;SDS011;5331;48.148;16.326;2023-03-01T03:38:42;27.23;;;18.80;;
10565;SDS011;5331;48.148;16.326;2023-03-01T03:41:11;29.13;;;18.67;;
10565;SDS011;5331;48.148;16.326;2023-03-01T03:43:39;29.87;;;18.30;;
10565;SDS011;5331;48.148;16.326;2023-03-01T03:46:08;29.17;;;18.73;;
10565;SDS011;5331;48.148;16.326;2023-03-01T03:48:37;27.77;;;19.17;;
10565;SDS011;5331;48.148;16.326;2023-03-01T03:51:05;24.80;;;17.70;;
10565;SDS011;5331;48.148;16.326;2023-03-01T03:53:32;28.40;;;18.50;;
10565;SDS011;5331;48.148;16.326;2023-03-01T03:56:00;25.97;;;17.67;;
10565;SDS011;5331;48.148;16.326;2023-03-01T03:58:26;27.17;;;17.93;;
10565;SDS011;5331;48.148;16.326;2023-03-01T04:00:54;26.67;;;18.30;;
10565;SDS011;5331;48.148;16.326;2023-03-01T04:03:22;26.13;;;17.63;;
10565;SDS011;5331;48.148;16.326;2023-03-01T04:05:53;29.73;;;18.93;;
10565;SDS011;5331;48.148;16.326;2023-03-01T04:08:20;26.30;;;18.70;;
10565;SDS011;5331;48.148;16.326;2023-03-01T04:10:49;29.67;;;18.57;;
10565;SDS011;5331;48.148;16.326;2023-03-01T04:13:18;26.97;;;17.70;;
10565;SDS011;5331;48.148;16.326;2023-03-01T04:15:47;28.10;;;17.70;;
10565;SDS011;5331;48.148;16.326;2023-03-01T04:18:15;27.53;;;18.67;;
10565;SDS011;5331;48.148;16.326;2023-03-01T04:20:43;27.53;;;17.27;;
10565;SDS011;5331;48.148;16.326;2023-03-01T04:23:12;26.10;;;17.60;;
10565;SDS011;5331;48.148;16.326;2023-03-01T04:25:45;26.30;;;17.57;;
10565;SDS011;5331;48.148;16.326;2023-03-01T04:28:14;29.63;;;18.80;;
10565;SDS011;5331;48.148;16.326;2023-03-01T04:30:42;27.33;;;18.70;;
10565;SDS011;5331;48.148;16.326;2023-03-01T04:33:09;27.17;;;19.00;;
10565;SDS011;5331;48.148;16.326;2023-03-01T04:35:37;30.23;;;19.70;;
10565;SDS011;5331;48.148;16.326;2023-03-01T04:38:05;27.53;;;19.47;;
10565;SDS011;5331;48.148;16.326;2023-03-01T04:40:34;28.30;;;19.53;;
10565;SDS011;5331;48.148;16.326;2023-03-01T04:43:01;26.77;;;18.80;;
10565;SDS011;5331;48.148;16.326;2023-03-01T04:45:31;27.60;;;19.57;;
10565;SDS011;5331;48.148;16.326;2023-03-01T04:47:59;27.20;;;19.03;;
10565;SDS011;5331;48.148;16.326;2023-03-01T04:50:26;27.03;;;17.63;;
10565;SDS011;5331;48.148;16.326;2023-03-01T04:52:54;27.00;;;17.40;;
10565;SDS011;5331;48.148;16.326;2023-03-01T04:55:23;27.00;;;18.73;;
10565;SDS011;5331;48.148;16.326;2023-03-01T04:57:53;28.80;;;19.43;;
10565;SDS011;5331;48.148;16.326;2023-03-01T05:00:21;25.37;;;18.27;;
10565;SDS011;5331;48.148;16.326;2023-03-01T05:02:49;25.63;;;17.70;;
10565;SDS011;5331;48.148;16.326;2023-03-01T05:05:23;27.23;;;18.07;;
10565;SDS011;5331;48.148;16.326;2023-03-01T05:07:52;26.77;;;17.67;;
10565;SDS011;5331;48.148;16.326;2023-03-01T05:10:20;25.67;;;17.60;;
10565;SDS011;5331;48.148;16.326;2023-03-01T05:12:48;30.50;;;19.23;;
10565;SDS011;5331;48.148;16.326;2023-03-01T05:15:16;29.33;;;18.73;;
10565;SDS011;5331;48.148;16.326;2023-03-01T05:17:43;27.20;;;18.60;;
10565;SDS011;5331;48.148;16.326;2023-03-01T05:20:11;26.50;;;18.03;;
10565;SDS011;5331;48.148;16.326;2023-03-01T05:22:38;28.03;;;18.53;;
10565;SDS011;5331;48.148;16.326;2023-03-01T05:25:05;26.60;;;18.83;;
10565;SDS011;5331;48.148;16.326;2023-03-01T05:27:33;29.10;;;19.40;;
10565;SDS011;5331;48.148;16.326;2023-03-01T05:30:00;34.10;;;21.13;;
10565;SDS011;5331;48.148;16.326;2023-03-01T05:32:40;29.93;;;20.10;;
10565;SDS011;5331;48.148;16.326;2023-03-01T05:35:09;28.57;;;19.27;;
10565;SDS011;5331;48.148;16.326;2023-03-01T05:37:38;28.80;;;19.63;;
10565;SDS011;5331;48.148;16.326;2023-03-01T05:40:07;28.33;;;19.67;;
10565;SDS011;5331;48.148;16.326;2023-03-01T05:42:43;30.13;;;19.97;;
10565;SDS011;5331;48.148;16.326;2023-03-01T05:45:11;29.83;;;20.23;;
10565;SDS011;5331;48.148;16.326;2023-03-01T05:47:41;32.67;;;21.80;;
10565;SDS011;5331;48.148;16.326;2023-03-01T05:50:13;26.60;;;18.90;;
10565;SDS011;5331;48.148;16.326;2023-03-01T05:52:44;32.90;;;20.73;;
10565;SDS011;5331;48.148;16.326;2023-03-01T05:55:12;32.63;;;21.97;;
10565;SDS011;5331;48.148;16.326;2023-03-01T05:57:39;35.17;;;21.30;;
10565;SDS011;5331;48.148;16.326;2023-03-01T06:00:06;33.57;;;21.67;;
10565;SDS011;5331;48.148;16.326;2023-03-01T06:02:35;28.53;;;20.27;;
10565;SDS011;5331;48.148;16.326;2023-03-01T06:05:04;31.90;;;21.47;;
10565;SDS011;5331;48.148;16.326;2023-03-01T06:07:32;35.47;;;21.73;;
10565;SDS011;5331;48.148;16.326;2023-03-01T06:10:00;33.47;;;21.10;;
10565;SDS011;5331;48.148;16.326;2023-03-01T06:12:29;33.53;;;21.93;;
10565;SDS011;5331;48.148;16.326;2023-03-01T06:14:56;32.00;;;21.13;;
10565;SDS011;5331;48.148;16.326;2023-03-01T06:17:23;33.37;;;20.87;;
10565;SDS011;5331;48.148;16.326;2023-03-01T06:23:14;33.43;;;21.00;;
10565;SDS011;5331;48.148;16.326;2023-03-01T06:25:41;27.93;;;18.57;;
10565;SDS011;5331;48.148;16.326;2023-03-01T06:28:08;33.07;;;20.87;;
10565;SDS011;5331;48.148;16.326;2023-03-01T06:30:35;36.50;;;21.70;;
10565;SDS011;5331;48.148;16.326;2023-03-01T06:33:02;32.40;;;21.30;;
10565;SDS011;5331;48.148;16.326;2023-03-01T06:35:29;30.20;;;19.80;;
10565;SDS011;5331;48.148;16.326;2023-03-01T06:37:56;27.83;;;19.53;;
10565;SDS011;5331;48.148;16.326;2023-03-01T06:40:26;34.37;;;22.37;;
10565;SDS011;5331;48.148;16.326;2023-03-01T06:42:53;30.43;;;19.77;;
10565;SDS011;5331;48.148;16.326;2023-03-01T06:45:20;31.50;;;20.13;;
10565;SDS011;5331;48.148;16.326;2023-03-01T06:47:47;33.70;;;21.83;;
10565;SDS011;5331;48.148;16.326;2023-03-01T06:50:14;34.27;;;21.23;;
10565;SDS011;5331;48.148;16.326;2023-03-01T06:52:42;37.97;;;22.70;;
10565;SDS011;5331;48.148;16.326;2023-03-01T06:55:09;34.03;;;22.63;;
10565;SDS011;5331;48.148;16.326;2023-03-01T06:57:38;33.60;;;22.40;;
10565;SDS011;5331;48.148;16.326;2023-03-01T07:00:06;36.43;;;23.10;;
10565;SDS011;5331;48.148;16.326;2023-03-01T07:02:33;37.13;;;22.70;;
10565;SDS011;5331;48.148;16.326;2023-03-01T07:05:00;36.40;;;22.07;;
10565;SDS011;5331;48.148;16.326;2023-03-01T07:07:27;33.00;;;21.87;;
10565;SDS011;5331;48.148;16.326;2023-03-01T07:09:54;35.57;;;22.20;;
10565;SDS011;5331;48.148;16.326;2023-03-01T07:12:21;36.27;;;23.03;;
10565;SDS011;5331;48.148;16.326;2023-03-01T07:14:49;34.70;;;21.93;;
10565;SDS011;5331;48.148;16.326;2023-03-01T07:17:16;33.07;;;22.00;;
10565;SDS011;5331;48.148;16.326;2023-03-01T07:19:43;39.03;;;22.97;;
10565;SDS011;5331;48.148;16.326;2023-03-01T07:22:10;34.03;;;22.40;;
10565;SDS011;5331;48.148;16.326;2023-03-01T07:24:37;35.87;;;23.30;;
10565;SDS011;5331;48.148;16.326;2023-03-01T07:27:04;35.60;;;22.63;;
10565;SDS011;5331;48.148;16.326;2023-03-01T07:29:31;35.43;;;22.67;;
10565;SDS011;5331;48.148;16.326;2023-03-01T07:31:59;39.83;;;23.90;;
10565;SDS011;5331;48.148;16.326;2023-03-01T07:34:26;32.73;;;21.37;;
10565;SDS011;5331;48.148;16.326;2023-03-01T07:36:53;35.87;;;22.47;;
10565;SDS011;5331;48.148;16.326;2023-03-01T07:39:20;37.23;;;23.00;;
10565;SDS011;5331;48.148;16.326;2023-03-01T07:41:48;32.97;;;21.37;;
10565;SDS011;5331;48.148;16.326;2023-03-01T07:44:15;33.33;;;22.03;;
10565;SDS011;5331;48.148;16.326;2023-03-01T07:46:42;34.23;;;21.47;;
10565;SDS011;5331;48.148;16.326;2023-03-01T07:49:11;35.00;;;21.83;;
10565;SDS011;5331;48.148;16.326;2023-03-01T07:51:37;35.67;;;22.60;;
10565;SDS011;5331;48.148;16.326;2023-03-01T07:54:04;35.43;;;22.03;;
10565;SDS011;5331;48.148;16.326;2023-03-01T07:56:31;37.27;;;22.60;;
10565;SDS011;5331;48.148;16.326;2023-03-01T07:58:58;37.50;;;22.60;;
10565;SDS011;5331;48.148;16.326;2023-03-01T08:01:26;36.70;;;23.17;;
10565;SDS011;5331;48.148;16.326;2023-03-01T08:03:53;37.93;;;22.93;;
10565;SDS011;5331;48.148;16.326;2023-03-01T08:06:21;35.00;;;22.63;;
10565;SDS011;5331;48.148;16.326;2023-03-01T08:08:48;37.03;;;23.57;;
10565;SDS011;5331;48.148;16.326;2023-03-01T08:11:15;36.60;;;23.53;;
10565;SDS011;5331;48.148;16.326;2023-03-01T08:13:42;38.40;;;23.80;;
10565;SDS011;5331;48.148;16.326;2023-03-01T08:16:10;39.67;;;23.80;;
10565;SDS011;5331;48.148;16.326;2023-03-01T08:18:38;39.27;;;23.83;;
10565;SDS011;5331;48.148;16.326;2023-03-01T08:21:06;41.23;;;24.70;;
10565;SDS011;5331;48.148;16.326;2023-03-01T08:23:35;38.70;;;23.47;;
10565;SDS011;5331;48.148;16.326;2023-03-01T08:26:03;39.70;;;23.87;;
10565;SDS011;5331;48.148;16.326;2023-03-01T08:28:32;37.70;;;24.10;;
10565;SDS011;5331;48.148;16.326;2023-03-01T08:30:59;39.73;;;23.40;;
10565;SDS011;5331;48.148;16.326;2023-03-01T08:33:26;38.43;;;23.63;;
10565;SDS011;5331;48.148;16.326;2023-03-01T08:35:53;40.87;;;23.13;;
10565;SDS011;5331;48.148;16.326;2023-03-01T08:38:28;40.77;;;23.93;;
10565;SDS011;5331;48.148;16.326;2023-03-01T08:40:57;37.87;;;24.23;;
10565;SDS011;5331;48.148;16.326;2023-03-01T08:43:25;42.30;;;24.70;;
10565;SDS011;5331;48.148;16.326;2023-03-01T08:45:52;37.13;;;24.13;;
10565;SDS011;5331;48.148;16.326;2023-03-01T08:48:19;39.63;;;23.87;;
10565;SDS011;5331;48.148;16.326;2023-03-01T08:50:46;40.37;;;23.77;;
10565;SDS011;5331;48.148;16.326;2023-03-01T08:53:13;35.57;;;22.93;;
10565;SDS011;5331;48.148;16.326;2023-03-01T08:55:40;38.70;;;23.27;;
10565;SDS011;5331;48.148;16.326;2023-03-01T08:58:08;35.20;;;21.47;;
10565;SDS011;5331;48.148;16.326;2023-03-01T09:00:35;35.93;;;22.30;;
10565;SDS011;5331;48.148;16.326;2023-03-01T09:03:02;36.73;;;21.70;;
10565;SDS011;5331;48.148;16.326;2023-03-01T09:05:30;38.43;;;22.53;;
10565;SDS011;5331;48.148;16.326;2023-03-01T09:07:57;36.47;;;22.13;;
10565;SDS011;5331;48.148;16.326;2023-03-01T09:10:24;32.80;;;20.13;;
10565;SDS011;5331;48.148;16.326;2023-03-01T09:12:51;34.53;;;21.93;;
10565;SDS011;5331;48.148;16.326;2023-03-01T09:15:20;33.63;;;21.10;;
10565;SDS011;5331;48.148;16.326;2023-03-01T09:17:47;35.50;;;22.53;;
10565;SDS011;5331;48.148;16.326;2023-03-01T09:20:14;36.23;;;22.37;;
10565;SDS011;5331;48.148;16.326;2023-03-01T09:22:41;33.63;;;20.63;;
10565;SDS011;5331;48.148;16.326;2023-03-01T09:25:08;35.57;;;20.73;;
10565;SDS011;5331;48.148;16.326;2023-03-01T09:27:35;30.53;;;19.60;;
10565;SDS011;5331;48.148;16.326;2023-03-01T09:30:03;33.60;;;20.33;;
10565;SDS011;5331;48.148;16.326;2023-03-01T09:32:32;32.87;;;19.93;;
10565;SDS011;5331;48.148;16.326;2023-03-01T09:34:59;31.30;;;19.37;;
10565;SDS011;5331;48.148;16.326;2023-03-01T09:37:30;30.43;;;19.27;;
10565;SDS011;5331;48.148;16.326;2023-03-01T09:39:58;30.90;;;19.87;;
10565;SDS011;5331;48.148;16.326;2023-03-01T09:42:24;29.83;;;18.50;;
10565;SDS011;5331;48.148;16.326;2023-03-01T09:44:54;30.00;;;18.43;;
10565;SDS011;5331;48.148;16.326;2023-03-01T09:47:26;27.93;;;17.83;;
10565;SDS011;5331;48.148;16.326;2023-03-01T09:50:00;30.13;;;18.13;;
10565;SDS011;5331;48.148;16.326;2023-03-01T09:52:34;28.33;;;17.80;;
10565;SDS011;5331;48.148;16.326;2023-03-01T09:55:08;30.27;;;17.87;;
10565;SDS011;5331;48.148;16.326;2023-03-01T09:57:40;27.83;;;17.30;;
10565;SDS011;5331;48.148;16.326;2023-03-01T10:03:08;30.77;;;18.53;;
10565;SDS011;5331;48.148;16.326;2023-03-01T10:05:43;28.30;;;18.27;;
10565;SDS011;5331;48.148;16.326;2023-03-01T10:08:28;29.03;;;17.73;;
10565;SDS011;5331;48.148;16.326;2023-03-01T10:11:01;28.07;;;17.23;;
10565;SDS011;5331;48.148;16.326;2023-03-01T10:13:32;25.20;;;17.47;;
10565;SDS011;5331;48.148;16.326;2023-03-01T10:16:09;27.47;;;16.67;;
10565;SDS011;5331;48.148;16.326;2023-03-01T10:18:39;29.60;;;17.73;;
10565;SDS011;5331;48.148;16.326;2023-03-01T10:21:12;26.83;;;17.27;;
10565;SDS011;5331;48.148;16.326;2023-03-01T10:23:41;23.33;;;16.30;;
10565;SDS011;5331;48.148;16.326;2023-03-01T10:26:12;27.40;;;17.63;;
10565;SDS011;5331;48.148;16.326;2023-03-01T10:28:55;30.30;;;18.03;;
10565;SDS011;5331;48.148;16.326;2023-03-01T10:31:27;26.77;;;16.93;;
10565;SDS011;5331;48.148;16.326;2023-03-01T10:34:04;26.23;;;17.80;;
10565;SDS011;5331;48.148;16.326;2023-03-01T10:36:37;28.63;;;18.27;;
10565;SDS011;5331;48.148;16.326;2023-03-01T10:39:10;28.43;;;17.80;;
10565;SDS011;5331;48.148;16.326;2023-03-01T10:41:44;24.20;;;16.57;;
10565;SDS011;5331;48.148;16.326;2023-03-01T10:44:34;26.60;;;17.53;;
10565;SDS011;5331;48.148;16.326;2023-03-01T10:47:03;25.43;;;16.80;;
10565;SDS011;5331;48.148;16.326;2023-03-01T10:49:30;25.30;;;17.40;;
10565;SDS011;5331;48.148;16.326;2023-03-01T10:51:58;25.67;;;16.80;;
10565;SDS011;5331;48.148;16.326;2023-03-01T10:54:45;23.13;;;16.13;;
10565;SDS011;5331;48.148;16.326;2023-03-01T10:57:29;26.13;;;17.03;;
10565;SDS011;5331;48.148;16.326;2023-03-01T11:00:18;26.00;;;16.67;;
10565;SDS011;5331;48.148;16.326;2023-03-01T11:02:48;25.20;;;15.63;;
10565;SDS011;5331;48.148;16.326;2023-03-01T11:05:19;21.40;;;15.43;;
10565;SDS011;5331;48.148;16.326;2023-03-01T11:07:51;22.97;;;15.50;;
10565;SDS011;5331;48.148;16.326;2023-03-01T11:10:21;23.00;;;15.40;;
10565;SDS011;5331;48.148;16.326;2023-03-01T11:12:50;20.90;;;15.60;;
10565;SDS011;5331;48.148;16.326;2023-03-01T11:15:25;23.80;;;16.30;;
10565;SDS011;5331;48.148;16.326;2023-03-01T11:17:54;20.47;;;14.80;;
10565;SDS011;5331;48.148;16.326;2023-03-01T11:20:26;21.10;;;14.57;;
10565;SDS011;5331;48.148;16.326;2023-03-01T11:22:58;20.00;;;14.20;;
10565;SDS011;5331;48.148;16.326;2023-03-01T11:25:31;22.93;;;13.43;;
10565;SDS011;5331;48.148;16.326;2023-03-01T11:28:03;20.90;;;14.43;;
10565;SDS011;5331;48.148;16.326;2023-03-01T11:30:33;23.83;;;14.90;;
10565;SDS011;5331;48.148;16.326;2023-03-01T11:33:08;21.43;;;14.33;;
10565;SDS011;5331;48.148;16.326;2023-03-01T11:35:42;23.60;;;16.00;;
10565;SDS011;5331;48.148;16.326;2023-03-01T11:38:19;21.98;;;15.80;;
10565;SDS011;5331;48.148;16.326;2023-03-01T11:40:49;20.85;;;14.18;;
10565;SDS011;5331;48.148;16.326;2023-03-01T11:43:26;20.38;;;14.32;;
10565;SDS011;5331;48.148;16.326;2023-03-01T11:49:25;21.30;;;13.70;;
10565;SDS011;5331;48.148;16.326;2023-03-01T11:52:20;21.43;;;14.43;;
10565;SDS011;5331;48.148;16.326;2023-03-01T11:54:59;20.57;;;14.73;;
10565;SDS011;5331;48.148;16.326;2023-03-01T11:57:43;21.03;;;14.63;;
10565;SDS011;5331;48.148;16.326;2023-03-01T12:00:24;22.83;;;14.37;;
10565;SDS011;5331;48.148;16.326;2023-03-01T12:08:39;22.67;;;15.00;;
10565;SDS011;5331;48.148;16.326;2023-03-01T12:11:14;22.97;;;15.37;;
10565;SDS011;5331;48.148;16.326;2023-03-01T12:13:55;23.67;;;15.50;;
10565;SDS011;5331;48.148;16.326;2023-03-01T12:16:56;22.87;;;15.20;;
10565;SDS011;5331;48.148;16.326;2023-03-01T12:22:32;19.73;;;13.67;;
10565;SDS011;5331;48.148;16.326;2023-03-01T12:25:14;22.57;;;14.93;;
10565;SDS011;5331;48.148;16.326;2023-03-01T12:27:54;20.20;;;14.00;;
10565;SDS011;5331;48.148;16.326;2023-03-01T12:30:48;20.30;;;13.43;;
10565;SDS011;5331;48.148;16.326;2023-03-01T12:33:41;20.13;;;13.97;;
10565;SDS011;5331;48.148;16.326;2023-03-01T12:36:25;19.57;;;14.03;;
10565;SDS011;5331;48.148;16.326;2023-03-01T12:39:19;18.70;;;14.03;;
10565;SDS011;5331;48.148;16.326;2023-03-01T12:42:01;19.37;;;13.40;;
10565;SDS011;5331;48.148;16.326;2023-03-01T12:44:42;21.53;;;13.73;;
10565;SDS011;5331;48.148;16.326;2023-03-01T12:47:26;19.07;;;13.27;;
10565;SDS011;5331;48.148;16.326;2023-03-01T12:50:05;17.83;;;12.90;;
10565;SDS011;5331;48.148;16.326;2023-03-01T12:52:41;19.90;;;13.47;;
10565;SDS011;5331;48.148;16.326;2023-03-01T12:55:16;16.87;;;12.50;;
10565;SDS011;5331;48.148;16.326;2023-03-01T12:57:51;18.80;;;13.37;;
10565;SDS011;5331;48.148;16.326;2023-03-01T13:00:32;16.87;;;12.47;;
10565;SDS011;5331;48.148;16.326;2023-03-01T13:03:06;19.80;;;14.17;;
10565;SDS011;5331;48.148;16.326;2023-03-01T13:05:49;17.77;;;12.50;;
10565;SDS011;5331;48.148;16.326;2023-03-01T13:08:27;19.53;;;13.63;;
10565;SDS011;5331;48.148;16.326;2023-03-01T13:10:59;16.53;;;12.47;;
10565;SDS011;5331;48.148;16.326;2023-03-01T13:13:28;18.70;;;13.67;;
10565;SDS011;5331;48.148;16.326;2023-03-01T13:15:57;18.53;;;13.80;;
10565;SDS011;5331;48.148;16.326;2023-03-01T13:19:09;18.67;;;13.20;;
10565;SDS011;5331;48.148;16.326;2023-03-01T13:21:41;19.40;;;13.68;;
10565;SDS011;5331;48.148;16.326;2023-03-01T13:24:23;20.90;;;14.70;;
10565;SDS011;5331;48.148;16.326;2023-03-01T13:27:09;19.77;;;14.00;;
10565;SDS011;5331;48.148;16.326;2023-03-01T13:29:43;23.07;;;14.10;;
10565;SDS011;5331;48.148;16.326;2023-03-01T13:32:23;20.25;;;13.63;;
10565;SDS011;5331;48.148;16.326;2023-03-01T13:34:54;22.10;;;14.40;;
10565;SDS011;5331;48.148;16.326;2023-03-01T13:37:25;21.95;;;14.52;;
10565;SDS011;5331;48.148;16.326;2023-03-01T13:39:58;20.37;;;14.67;;
10565;SDS011;5331;48.148;16.326;2023-03-01T13:42:34;19.35;;;13.85;;
10565;SDS011;5331;48.148;16.326;2023-03-01T13:45:14;17.67;;;12.80;;
10565;SDS011;5331;48.148;16.326;2023-03-01T13:47:51;20.25;;;13.77;;
10565;SDS011;5331;48.148;16.326;2023-03-01T13:50:23;20.25;;;13.55;;
10565;SDS011;5331;48.148;16.326;2023-03-01T13:52:55;20.10;;;14.43;;
10565;SDS011;5331;48.148;16.326;2023-03-01T13:55:26;20.80;;;13.65;;
10565;SDS011;5331;48.148;16.326;2023-03-01T13:58:02;21.65;;;14.00;;
10565;SDS011;5331;48.148;16.326;2023-03-01T14:00:40;19.75;;;14.13;;
10565;SDS011;5331;48.148;16.326;2023-03-01T14:03:13;19.05;;;13.32;;
10565;SDS011;5331;48.148;16.326;2023-03-01T14:05:42;21.05;;;13.77;;
10565;SDS011;5331;48.148;16.326;2023-03-01T14:08:18;20.58;;;14.27;;
10565;SDS011;5331;48.148;16.326;2023-03-01T14:10:53;17.42;;;13.50;;
10565;SDS011;5331;48.148;16.326;2023-03-01T14:13:36;19.13;;;13.07;;
10565;SDS011;5331;48.148;16.326;2023-03-01T14:16:16;19.60;;;13.68;;
10565;SDS011;5331;48.148;16.326;2023-03-01T14:18:54;17.38;;;13.35;;
10565;SDS011;5331;48.148;16.326;2023-03-01T14:21:33;16.67;;;12.20;;
10565;SDS011;5331;48.148;16.326;2023-03-01T14:24:01;18.23;;;12.82;;
10565;SDS011;5331;48.148;16.326;2023-03-01T14:26:37;18.23;;;12.27;;
10565;SDS011;5331;48.148;16.326;2023-03-01T14:29:04;16.73;;;12.65;;
10565;SDS011;5331;48.148;16.326;2023-03-01T14:31:32;17.75;;;12.57;;
10565;SDS011;5331;48.148;16.326;2023-03-01T14:34:04;20.38;;;13.50;;
10565;SDS011;5331;48.148;16.326;2023-03-01T14:36:33;18.77;;;13.27;;
10565;SDS011;5331;48.148;16.326;2023-03-01T14:39:00;18.38;;;13.88;;
10565;SDS011;5331;48.148;16.326;2023-03-01T14:41:41;17.77;;;12.45;;
10565;SDS011;5331;48.148;16.326;2023-03-01T14:44:12;18.15;;;12.88;;
10565;SDS011;5331;48.148;16.326;2023-03-01T14:46:45;16.55;;;12.45;;
10565;SDS011;5331;48.148;16.326;2023-03-01T14:49:15;17.70;;;12.98;;
10565;SDS011;5331;48.148;16.326;2023-03-01T14:51:46;19.60;;;13.05;;
10565;SDS011;5331;48.148;16.326;2023-03-01T14:54:20;17.10;;;12.48;;
10565;SDS011;5331;48.148;16.326;2023-03-01T14:56:50;19.88;;;12.70;;
10565;SDS011;5331;48.148;16.326;2023-03-01T14:59:23;17.67;;;12.68;;
10565;SDS011;5331;48.148;16.326;2023-03-01T15:01:50;17.67;;;12.50;;